Time;durP1;ratioP1;P1;durP2;ratioP2;P2;SDS_P1;SDS_P2;PMS_P1;PMS_P2;Temp;Humidity;BMP_temperature;BMP_pressure;BME280_temperature;BME280_humidity;BME280_pressure;Samples;Min_cycle;Max_cycle;Signal;HPM_P1;HPM_P2
2021/06/23 04:00:14;;;;;;;11.03;8.93;;;19.00;99.90;;;;;;6094101;23;20395;31
2021/06/23 04:02:41;;;;;;;10.73;9.73;;;19.00;99.90;;;;;;4958038;28;20467;-59
2021/06/23 04:05:09;;;;;;;10.87;9.50;;;18.90;99.90;;;;;;4959232;29;20455;-62
2021/06/23 04:07:36;;;;;;;11.83;10.70;;;18.90;99.90;;;;;;4959116;28;20828;-61
2021/06/23 04:10:04;;;;;;;10.00;9.30;;;18.90;99.90;;;;;;4959451;29;20883;-61
2021/06/23 04:12:30;;;;;;;10.23;9.23;;;18.90;99.90;;;;;;4977695;28;20981;-61
2021/06/23 04:14:57;;;;;;;10.10;9.30;;;19.00;99.90;;;;;;4978252;28;20964;-60
2021/06/23 04:17:25;;;;;;;9.37;8.77;;;19.00;99.90;;;;;;4978485;28;20481;-60
2021/06/23 04:19:52;;;;;;;8.27;7.53;;;19.10;99.90;;;;;;4978483;28;20455;-61
2021/06/23 04:22:19;;;;;;;9.47;8.53;;;19.20;99.90;;;;;;4978367;28;20497;-60
2021/06/23 04:24:45;;;;;;;13.33;8.73;;;19.10;99.90;;;;;;4977987;28;20461;-62
2021/06/23 04:27:12;;;;;;;10.63;9.30;;;19.10;99.90;;;;;;4978046;28;20505;-61
2021/06/23 04:29:39;;;;;;;10.20;9.40;;;19.10;99.90;;;;;;4978397;28;20450;-60
2021/06/23 04:32:06;;;;;;;11.43;10.43;;;19.10;99.90;;;;;;4978218;28;20501;-61
2021/06/23 04:34:34;;;;;;;10.63;9.53;;;19.10;99.90;;;;;;4977778;28;20486;-60
2021/06/23 04:37:01;;;;;;;10.23;9.47;;;19.10;99.90;;;;;;4978223;28;20458;-61
2021/06/23 04:39:27;;;;;;;11.27;9.93;;;19.10;99.90;;;;;;4977686;28;20462;-61
2021/06/23 04:41:54;;;;;;;12.77;11.47;;;19.10;99.90;;;;;;4978075;28;20486;-61
2021/06/23 04:44:21;;;;;;;11.60;10.30;;;19.00;99.90;;;;;;4979048;28;20459;-60
2021/06/23 04:46:47;;;;;;;16.83;10.17;;;19.00;99.90;;;;;;4978189;28;20458;-61
2021/06/23 04:49:15;;;;;;;15.23;10.40;;;19.10;99.90;;;;;;4978223;28;20455;-60
2021/06/23 04:51:43;;;;;;;16.50;9.83;;;19.10;99.90;;;;;;4978512;28;20482;-60
2021/06/23 04:54:09;;;;;;;11.60;10.50;;;19.10;99.90;;;;;;4979333;28;20475;-61
2021/06/23 04:56:36;;;;;;;10.40;9.60;;;19.10;99.90;;;;;;4995572;28;20459;-61
2021/06/23 04:59:03;;;;;;;10.47;9.67;;;19.20;99.90;;;;;;4977347;28;20454;-59
2021/06/23 05:01:30;;;;;;;10.23;9.33;;;19.20;99.90;;;;;;4977164;28;20486;-60
2021/06/23 05:03:56;;;;;;;7.67;6.93;;;19.20;99.90;;;;;;4977087;28;20459;-60
2021/06/23 05:06:23;;;;;;;7.50;6.93;;;19.30;99.90;;;;;;4977517;28;20445;-60
2021/06/23 05:08:51;;;;;;;7.57;6.83;;;19.50;99.90;;;;;;4976990;28;20961;-60
2021/06/23 05:11:18;;;;;;;6.70;6.10;;;19.50;99.90;;;;;;4977069;28;20885;-60
2021/06/23 05:13:45;;;;;;;6.77;6.27;;;19.50;99.90;;;;;;4977256;28;20478;-60
2021/06/23 05:16:11;;;;;;;6.50;6.10;;;19.60;99.90;;;;;;4977357;28;20824;-61
2021/06/23 05:18:38;;;;;;;6.70;6.20;;;19.60;99.90;;;;;;4976964;28;20482;-60
2021/06/23 05:21:05;;;;;;;6.53;6.03;;;19.70;99.90;;;;;;4977074;28;20483;-60
2021/06/23 05:23:32;;;;;;;7.13;6.63;;;19.80;99.90;;;;;;4976950;28;20455;-60
2021/06/23 05:26:00;;;;;;;5.77;5.47;;;19.70;99.90;;;;;;4976976;28;20459;-61
2021/06/23 05:28:27;;;;;;;5.23;4.83;;;19.90;99.90;;;;;;4976924;28;20458;-60
2021/06/23 05:30:54;;;;;;;5.57;4.93;;;20.00;99.90;;;;;;4976293;28;20977;-60
2021/06/23 05:33:20;;;;;;;4.93;4.53;;;20.10;99.90;;;;;;4976855;28;20479;-60
2021/06/23 05:35:47;;;;;;;4.13;3.87;;;20.20;99.90;;;;;;4976668;28;20458;-60
2021/06/23 05:38:14;;;;;;;3.80;3.50;;;20.20;99.90;;;;;;4977130;28;20457;-60
2021/06/23 05:40:41;;;;;;;6.00;3.90;;;20.30;99.90;;;;;;4977720;28;20481;-60
2021/06/23 05:43:09;;;;;;;3.77;3.47;;;20.30;99.90;;;;;;4978268;28;20455;-60
2021/06/23 05:45:36;;;;;;;3.70;3.50;;;20.40;99.90;;;;;;4978887;28;20459;-60
2021/06/23 05:48:03;;;;;;;4.07;3.50;;;20.60;99.90;;;;;;4977942;28;20466;-62
2021/06/23 05:50:30;;;;;;;4.00;3.80;;;20.60;99.90;;;;;;4976803;28;20462;-60
2021/06/23 05:52:56;;;;;;;4.13;3.93;;;20.70;99.90;;;;;;4979062;28;20462;-61
2021/06/23 05:55:23;;;;;;;3.27;3.00;;;20.80;99.90;;;;;;4981646;28;20505;-60
2021/06/23 05:57:51;;;;;;;4.03;3.20;;;20.90;99.90;;;;;;4976660;28;20458;-60
2021/06/23 06:00:21;;;;;;;3.60;3.37;;;20.90;99.90;;;;;;4976776;28;20486;-60
2021/06/23 06:02:48;;;;;;;4.10;3.77;;;21.00;99.90;;;;;;4979414;28;20466;-61
2021/06/23 06:05:16;;;;;;;4.40;4.00;;;21.10;99.90;;;;;;4981548;28;20451;-60
2021/06/23 06:07:43;;;;;;;4.13;3.80;;;21.10;99.90;;;;;;4984552;28;20450;-60
2021/06/23 06:10:11;;;;;;;3.57;3.27;;;21.20;99.90;;;;;;4985363;28;20459;-60
2021/06/23 06:12:38;;;;;;;3.03;2.90;;;21.30;99.90;;;;;;4979185;28;20942;-60
2021/06/23 06:15:06;;;;;;;2.87;2.50;;;21.60;99.90;;;;;;4975570;28;20505;-60
2021/06/23 06:17:35;;;;;;;2.90;2.70;;;21.80;99.90;;;;;;4976223;28;20465;-61
2021/06/23 06:20:02;;;;;;;3.27;2.97;;;21.90;99.90;;;;;;4975864;28;20458;-60
2021/06/23 06:22:28;;;;;;;2.70;2.50;;;22.00;99.90;;;;;;4975626;28;20994;-61
2021/06/23 06:24:55;;;;;;;3.60;3.30;;;22.20;99.90;;;;;;4975492;28;20543;-61
2021/06/23 06:27:22;;;;;;;4.97;4.47;;;22.20;99.90;;;;;;4975653;28;20945;-61
2021/06/23 06:29:49;;;;;;;4.90;3.90;;;22.30;99.90;;;;;;4983834;28;20922;-61
2021/06/23 06:32:15;;;;;;;4.73;4.43;;;22.30;99.90;;;;;;4986683;28;20466;-61
2021/06/23 06:34:44;;;;;;;5.30;4.30;;;22.30;99.90;;;;;;4975844;28;20482;-61
2021/06/23 06:37:10;;;;;;;4.70;4.13;;;22.40;99.90;;;;;;4975759;28;20465;-60
2021/06/23 06:39:37;;;;;;;4.00;3.80;;;22.70;99.90;;;;;;4975727;28;20458;-60
2021/06/23 06:42:06;;;;;;;4.57;4.27;;;23.00;99.90;;;;;;4975323;28;20471;-62
2021/06/23 06:44:32;;;;;;;4.80;4.40;;;23.20;99.90;;;;;;4975824;28;20455;-60
2021/06/23 06:46:59;;;;;;;4.30;4.00;;;23.20;99.90;;;;;;4975726;28;20490;-60
2021/06/23 06:49:28;;;;;;;5.63;4.37;;;23.40;99.90;;;;;;4975621;28;20462;-60
2021/06/23 06:51:58;;;;;;;3.43;3.27;;;23.50;99.90;;;;;;4975295;28;20502;-60
2021/06/23 06:54:25;;;;;;;6.87;4.03;;;23.80;99.90;;;;;;4975314;28;20565;-61
2021/06/23 06:56:52;;;;;;;4.33;4.03;;;23.80;99.90;;;;;;4975595;28;20459;-60
2021/06/23 06:59:19;;;;;;;7.10;4.10;;;24.20;99.90;;;;;;4975137;28;20542;-60
2021/06/23 07:01:46;;;;;;;3.93;3.50;;;24.20;99.90;;;;;;4974945;28;20540;-60
2021/06/23 07:04:14;;;;;;;5.40;3.67;;;24.60;99.90;;;;;;4975337;28;20831;-60
2021/06/23 07:06:41;;;;;;;4.13;3.83;;;24.80;99.90;;;;;;4975168;28;20493;-59
2021/06/23 07:09:09;;;;;;;3.63;3.40;;;24.70;99.90;;;;;;4975027;28;20905;-61
2021/06/23 07:11:36;;;;;;;3.30;3.10;;;24.80;99.90;;;;;;4975217;28;20481;-60
2021/06/23 07:14:03;;;;;;;3.90;3.60;;;24.90;99.90;;;;;;4975203;28;20478;-59
2021/06/23 07:16:29;;;;;;;3.50;3.30;;;25.60;99.90;;;;;;4975109;28;20469;-60
2021/06/23 07:18:56;;;;;;;4.07;3.00;;;26.60;99.90;;;;;;4975076;28;20455;-60
2021/06/23 07:21:23;;;;;;;3.90;3.60;;;27.30;99.90;;;;;;4975045;28;20474;-60
2021/06/23 07:23:53;;;;;;;3.30;2.97;;;27.60;99.90;;;;;;4975235;28;20487;-60
2021/06/23 07:26:22;;;;;;;3.83;3.00;;;28.00;99.90;;;;;;4976644;28;20892;-60
2021/06/23 07:28:52;;;;;;;3.50;3.20;;;28.30;99.90;;;;;;4979264;28;20793;-61
2021/06/23 07:31:25;;;;;;;5.63;3.17;;;28.80;99.90;;;;;;4978809;28;20919;-61
2021/06/23 07:33:57;;;;;;;3.30;3.10;;;28.70;99.90;;;;;;4979570;28;20462;-61
2021/06/23 07:36:34;;;;;;;6.40;3.00;;;28.90;99.90;;;;;;4979968;28;20450;-62
2021/06/23 07:39:02;;;;;;;3.60;3.30;;;29.40;99.90;;;;;;4981792;28;20442;-62
2021/06/23 07:41:30;;;;;;;5.97;3.23;;;29.40;99.90;;;;;;4980813;28;20481;-62
2021/06/23 07:43:57;;;;;;;3.97;2.97;;;30.00;99.90;;;;;;4980351;28;20458;-61
2021/06/23 07:46:24;;;;;;;3.67;3.37;;;29.70;99.90;;;;;;4979239;28;20945;-61
2021/06/23 07:48:52;;;;;;;3.57;3.30;;;28.90;99.90;;;;;;4978875;28;20517;-61
2021/06/23 07:51:26;;;;;;;4.03;2.83;;;28.70;99.90;;;;;;4979369;28;20501;-62
2021/06/23 07:54:16;;;;;;;3.13;2.93;;;28.70;99.90;;;;;;4978426;28;20937;-61
2021/06/23 08:08:14;;;;;;;3.60;3.30;;;30.60;99.90;;;;;;4991610;28;20457;-61
2021/06/23 08:10:44;;;;;;;4.17;3.27;;;30.60;99.90;;;;;;4978027;28;20993;-60
2021/06/23 08:13:12;;;;;;;3.40;3.20;;;30.80;99.90;;;;;;4978055;28;20459;-61
2021/06/23 08:15:44;;;;;;;3.30;2.63;;;31.00;99.90;;;;;;4977879;28;20842;-62
2021/06/23 08:18:12;;;;;;;2.77;2.63;;;31.60;99.90;;;;;;4978254;28;20446;-61
2021/06/23 08:20:39;;;;;;;5.90;3.00;;;31.70;96.70;;;;;;4978156;28;20478;-61
2021/06/23 08:23:06;;;;;;;3.60;3.30;;;31.70;98.50;;;;;;4977854;28;20501;-61
2021/06/23 08:25:33;;;;;;;3.20;3.00;;;32.40;96.00;;;;;;4977614;28;20836;-61
2021/06/23 08:28:00;;;;;;;3.90;2.30;;;32.10;96.00;;;;;;4977982;28;20462;-61
2021/06/23 08:30:28;;;;;;;2.80;2.57;;;32.40;96.60;;;;;;4977883;28;20454;-61
2021/06/23 08:32:57;;;;;;;2.67;2.57;;;32.30;93.70;;;;;;4978667;28;20459;-61
2021/06/23 08:35:25;;;;;;;2.80;2.60;;;32.90;92.40;;;;;;4977475;28;21056;-61
2021/06/23 08:37:51;;;;;;;2.40;2.30;;;32.80;91.00;;;;;;4977252;28;20454;-62
2021/06/23 08:40:19;;;;;;;5.27;2.20;;;33.00;91.20;;;;;;4978193;28;20454;-61
2021/06/23 08:42:45;;;;;;;5.60;2.30;;;33.30;91.90;;;;;;4977691;28;20454;-61
2021/06/23 08:45:13;;;;;;;3.97;2.13;;;32.90;92.30;;;;;;4977646;28;20455;-60
2021/06/23 08:47:43;;;;;;;2.30;2.10;;;32.40;92.20;;;;;;4977524;28;20477;-61
2021/06/23 08:50:11;;;;;;;3.67;2.10;;;31.80;92.30;;;;;;4977808;28;20446;-61
2021/06/23 08:52:38;;;;;;;2.40;2.20;;;31.70;91.20;;;;;;4977559;28;20487;-62
2021/06/23 08:55:06;;;;;;;2.50;2.30;;;31.50;92.40;;;;;;4977330;28;20831;-61
2021/06/23 08:57:34;;;;;;;2.40;2.20;;;30.50;92.70;;;;;;4977596;28;20535;-61
2021/06/23 09:00:00;;;;;;;2.47;2.30;;;30.00;96.60;;;;;;4977360;28;20520;-61
2021/06/23 09:02:30;;;;;;;2.33;2.20;;;29.20;99.10;;;;;;4976792;28;20483;-61
2021/06/23 09:05:00;;;;;;;2.20;2.10;;;28.70;97.70;;;;;;4977119;28;20513;-61
2021/06/23 09:07:40;;;;;;;2.03;1.93;;;28.50;99.10;;;;;;4977600;28;20823;-61
2021/06/23 09:10:29;;;;;;;2.63;2.43;;;28.50;99.90;;;;;;4977840;28;20459;-61
2021/06/23 09:13:14;;;;;;;2.80;2.60;;;28.40;99.90;;;;;;4978042;28;20466;-61
2021/06/23 09:15:42;;;;;;;4.17;2.63;;;28.90;99.90;;;;;;4977139;28;20485;-62
2021/06/23 09:18:10;;;;;;;2.00;1.93;;;29.20;99.90;;;;;;4976721;28;20466;-62
2021/06/23 09:20:38;;;;;;;2.87;2.50;;;28.90;99.90;;;;;;4976581;28;20982;-60
2021/06/23 09:23:05;;;;;;;2.30;2.20;;;29.10;99.90;;;;;;4976940;28;20506;-61
2021/06/23 09:25:34;;;;;;;2.73;2.53;;;29.90;99.90;;;;;;4976849;28;20454;-60
2021/06/23 09:28:03;;;;;;;1.80;1.70;;;30.80;99.90;;;;;;4976848;28;20459;-62
2021/06/23 09:30:34;;;;;;;2.33;2.23;;;30.70;99.00;;;;;;4976460;28;20481;-62
2021/06/23 09:33:09;;;;;;;2.37;2.20;;;31.50;97.00;;;;;;4976555;28;20446;-61
2021/06/23 09:35:39;;;;;;;3.23;2.23;;;32.10;95.70;;;;;;4976380;28;20477;-62
2021/06/23 09:38:06;;;;;;;2.43;2.33;;;32.50;95.40;;;;;;4976332;28;20466;-61
2021/06/23 09:40:42;;;;;;;4.67;1.87;;;32.60;93.80;;;;;;4976303;28;20459;-61
2021/06/23 09:43:10;;;;;;;1.80;1.70;;;33.40;94.50;;;;;;4977370;28;20449;-61
2021/06/23 09:45:37;;;;;;;2.03;1.93;;;32.30;92.20;;;;;;4976465;28;20485;-62
2021/06/23 09:48:06;;;;;;;1.70;1.60;;;32.40;93.80;;;;;;4976390;28;20451;-60
2021/06/23 09:50:34;;;;;;;1.87;1.77;;;33.20;92.10;;;;;;4975326;28;20461;-62
2021/06/23 09:53:05;;;;;;;2.13;1.73;;;33.70;89.70;;;;;;4977121;28;20466;-61
2021/06/23 09:55:36;;;;;;;1.63;1.60;;;33.40;88.20;;;;;;4976136;28;20462;-61
2021/06/23 09:58:13;;;;;;;2.10;2.00;;;33.20;90.00;;;;;;4977201;28;20463;-61
2021/06/23 10:00:59;;;;;;;1.63;1.53;;;33.30;88.40;;;;;;4975589;28;20486;-62
2021/06/23 10:03:27;;;;;;;1.97;1.77;;;32.80;87.10;;;;;;4976064;28;20458;-61
2021/06/23 10:05:54;;;;;;;2.07;1.90;;;32.50;89.30;;;;;;4975981;28;20447;-61
2021/06/23 10:08:23;;;;;;;3.03;1.70;;;32.10;89.90;;;;;;4975656;28;20455;-61
2021/06/23 10:10:51;;;;;;;4.30;2.47;;;31.50;91.50;;;;;;4976047;28;20478;-60
2021/06/23 10:13:18;;;;;;;1.47;1.37;;;32.00;90.60;;;;;;4975621;28;20454;-60
2021/06/23 10:15:47;;;;;;;2.00;1.90;;;32.00;88.50;;;;;;4975798;28;20973;-60
2021/06/23 10:18:15;;;;;;;1.23;1.13;;;32.10;87.80;;;;;;4975880;28;20465;-61
2021/06/23 10:20:43;;;;;;;1.60;1.50;;;32.50;87.20;;;;;;4975611;28;20481;-61
2021/06/23 10:23:09;;;;;;;1.70;1.60;;;33.10;88.80;;;;;;4975535;28;20961;-62
2021/06/23 10:25:39;;;;;;;1.20;1.20;;;33.60;84.00;;;;;;4975382;28;20454;-61
2021/06/23 10:28:08;;;;;;;2.10;1.40;;;33.50;86.50;;;;;;4976689;28;20861;-61
2021/06/23 10:30:34;;;;;;;1.30;1.30;;;33.40;82.70;;;;;;4977263;28;20481;-61
2021/06/23 10:33:01;;;;;;;1.27;1.20;;;33.40;80.20;;;;;;4975328;28;20958;-62
2021/06/23 10:35:28;;;;;;;1.20;1.20;;;33.80;78.10;;;;;;4975404;28;20482;-61
2021/06/23 10:37:56;;;;;;;1.37;1.37;;;33.70;79.00;;;;;;4975634;28;20458;-61
2021/06/23 10:40:26;;;;;;;1.57;1.00;;;34.10;74.50;;;;;;4975186;28;20946;-61
2021/06/23 10:42:54;;;;;;;1.13;1.07;;;34.30;73.50;;;;;;4976103;28;20454;-62
2021/06/23 10:45:20;;;;;;;1.23;1.23;;;35.00;75.20;;;;;;4975681;28;20937;-63
2021/06/23 10:47:49;;;;;;;1.70;1.60;;;34.90;71.20;;;;;;4975365;28;20450;-61
2021/06/23 10:50:32;;;;;;;1.90;1.07;;;34.40;69.90;;;;;;4975336;28;20450;-60
2021/06/23 10:53:01;;;;;;;1.13;1.13;;;34.00;73.60;;;;;;4974900;28;20887;-62
2021/06/23 10:55:45;;;;;;;0.90;0.90;;;33.30;76.20;;;;;;4982937;28;20482;-61
2021/06/23 10:58:14;;;;;;;1.23;1.20;;;32.70;71.60;;;;;;4975239;28;20858;-61
2021/06/23 11:00:44;;;;;;;1.10;1.10;;;32.70;72.90;;;;;;4975264;28;20572;-62
2021/06/23 11:03:13;;;;;;;0.90;0.90;;;32.90;75.10;;;;;;4975004;28;20906;-62
2021/06/23 11:05:48;;;;;;;1.17;1.03;;;33.50;66.80;;;;;;4975206;28;20455;-61
2021/06/23 11:08:29;;;;;;;1.47;1.23;;;34.10;65.50;;;;;;4975784;28;20430;-61
2021/06/23 11:10:57;;;;;;;0.90;0.90;;;34.00;66.20;;;;;;4975104;28;20500;-60
2021/06/23 11:13:28;;;;;;;0.80;0.80;;;34.40;63.10;;;;;;4955541;28;20770;-61
2021/06/23 11:15:56;;;;;;;1.10;1.10;;;34.70;64.30;;;;;;4955671;29;21013;-61
2021/06/23 11:18:28;;;;;;;2.23;1.20;;;35.30;63.50;;;;;;4955236;29;20827;-61
2021/06/23 11:20:56;;;;;;;1.27;1.27;;;35.00;64.10;;;;;;4955502;29;20479;-60
2021/06/23 11:23:53;;;;;;;1.10;1.10;;;35.00;61.30;;;;;;4955421;29;20946;-61
2021/06/23 11:26:47;;;;;;;1.20;1.20;;;34.70;62.10;;;;;;4955743;29;20462;-61
2021/06/23 11:29:27;;;;;;;1.90;1.30;;;34.00;67.90;;;;;;4955578;29;20568;-61
2021/06/23 11:31:58;;;;;;;1.03;1.03;;;33.90;66.90;;;;;;4955182;29;21061;-60
2021/06/23 11:34:51;;;;;;;1.00;1.00;;;33.60;66.90;;;;;;4955541;29;20444;-61
2021/06/23 11:37:19;;;;;;;2.00;1.20;;;32.90;68.40;;;;;;4955532;28;20455;-60
2021/06/23 11:39:46;;;;;;;2.17;0.90;;;32.30;69.20;;;;;;4956353;29;20473;-61
2021/06/23 11:42:14;;;;;;;1.03;1.03;;;31.40;69.90;;;;;;4955628;29;20502;-61
2021/06/23 11:44:43;;;;;;;1.57;0.90;;;31.00;73.00;;;;;;4955730;29;20792;-61
2021/06/23 11:47:10;;;;;;;1.30;1.30;;;30.90;76.50;;;;;;4955644;29;20459;-61
2021/06/23 11:49:39;;;;;;;1.10;1.00;;;30.90;73.30;;;;;;4955801;29;20459;-61
2021/06/23 11:52:08;;;;;;;1.33;1.20;;;30.40;72.40;;;;;;4955592;29;20600;-61
2021/06/23 11:54:35;;;;;;;0.90;0.90;;;30.80;74.00;;;;;;4956003;29;20490;-60
2021/06/23 11:57:01;;;;;;;1.43;0.90;;;30.80;69.30;;;;;;4956069;29;20483;-60
2021/06/23 11:59:28;;;;;;;1.00;0.90;;;30.60;69.20;;;;;;4963047;29;20456;-61
2021/06/23 12:01:56;;;;;;;1.37;1.37;;;30.70;72.20;;;;;;4965496;29;20486;-61
2021/06/23 12:04:23;;;;;;;1.50;1.40;;;30.40;72.70;;;;;;4965448;28;20935;-61
2021/06/23 12:06:50;;;;;;;2.07;1.40;;;30.20;78.20;;;;;;4968115;29;20451;-61
2021/06/23 12:09:17;;;;;;;2.90;1.13;;;30.50;82.00;;;;;;4955206;29;20459;-61
2021/06/23 12:11:44;;;;;;;0.90;0.90;;;30.80;78.00;;;;;;4955082;29;20476;-61
2021/06/23 12:14:11;;;;;;;1.10;1.10;;;31.00;72.50;;;;;;4957602;28;20475;-62
2021/06/23 12:16:38;;;;;;;0.97;0.97;;;31.20;77.00;;;;;;4958668;29;20475;-63
2021/06/23 12:19:06;;;;;;;1.00;1.00;;;30.90;72.50;;;;;;4959023;29;20491;-61
2021/06/23 12:21:32;;;;;;;0.90;0.90;;;31.00;69.40;;;;;;4958796;29;20486;-61
2021/06/23 12:23:59;;;;;;;3.13;1.20;;;30.40;71.30;;;;;;4958747;29;20459;-62
2021/06/23 12:26:26;;;;;;;1.00;1.00;;;30.60;80.70;;;;;;4958946;29;20452;-61
2021/06/23 12:28:53;;;;;;;2.80;1.47;;;30.60;77.20;;;;;;4958459;29;20462;-62
2021/06/23 12:31:20;;;;;;;1.10;0.97;;;30.50;79.10;;;;;;4958622;29;20479;-61
2021/06/23 12:33:46;;;;;;;0.80;0.80;;;30.50;77.80;;;;;;4958680;29;20459;-60
2021/06/23 12:36:15;;;;;;;1.00;1.00;;;30.70;80.60;;;;;;4958424;29;20479;-61
2021/06/23 12:38:43;;;;;;;1.00;1.00;;;31.10;85.00;;;;;;4958536;29;20536;-61
2021/06/23 12:41:10;;;;;;;1.73;1.33;;;31.40;76.50;;;;;;4958444;29;20554;-60
2021/06/23 12:43:37;;;;;;;1.07;0.97;;;31.20;76.50;;;;;;4958134;29;20825;-61
2021/06/23 12:46:04;;;;;;;1.07;1.07;;;31.10;76.50;;;;;;4958226;29;20853;-60
2021/06/23 12:48:30;;;;;;;1.10;1.10;;;30.60;79.20;;;;;;4958290;29;20462;-61
2021/06/23 12:50:57;;;;;;;1.63;1.10;;;30.30;76.50;;;;;;4958678;29;20881;-60
2021/06/23 12:53:25;;;;;;;1.80;0.87;;;30.10;78.10;;;;;;4958727;29;20459;-61
2021/06/23 12:55:52;;;;;;;3.23;1.20;;;29.80;78.40;;;;;;4958147;29;20479;-61
2021/06/23 12:58:19;;;;;;;0.70;0.70;;;29.80;80.80;;;;;;4958197;29;20463;-61
2021/06/23 13:00:46;;;;;;;1.10;1.10;;;29.70;84.60;;;;;;4958233;29;20495;-61
2021/06/23 13:03:13;;;;;;;0.90;0.90;;;29.10;79.00;;;;;;4961749;29;20798;-61
2021/06/23 13:05:39;;;;;;;0.80;0.80;;;29.20;82.50;;;;;;4961800;29;20454;-61
2021/06/23 13:08:07;;;;;;;1.37;1.27;;;29.10;82.80;;;;;;4960750;29;20456;-61
2021/06/23 13:10:35;;;;;;;0.90;0.90;;;29.20;82.40;;;;;;4958783;28;20463;-62
2021/06/23 13:13:02;;;;;;;0.90;0.90;;;29.10;81.30;;;;;;4958866;29;20464;-63
2021/06/23 13:15:29;;;;;;;1.30;1.30;;;29.10;79.80;;;;;;4957295;29;20480;-62
2021/06/23 13:17:56;;;;;;;4.53;2.53;;;29.20;82.90;;;;;;4957321;29;20456;-62
2021/06/23 13:20:24;;;;;;;2.63;2.43;;;28.70;88.80;;;;;;4957422;29;20467;-62
2021/06/23 13:22:53;;;;;;;2.43;2.33;;;28.70;91.20;;;;;;4957632;29;20471;-63
2021/06/23 13:25:19;;;;;;;4.83;2.60;;;28.60;91.40;;;;;;4957685;28;20456;-61
2021/06/23 13:27:48;;;;;;;3.13;2.93;;;28.50;92.60;;;;;;4958349;29;20463;-61
2021/06/23 13:30:16;;;;;;;3.93;2.63;;;28.40;92.80;;;;;;4958086;29;20459;-61
2021/06/23 13:32:42;;;;;;;3.47;2.47;;;28.20;92.20;;;;;;4957954;28;20463;-62
2021/06/23 13:35:10;;;;;;;3.00;2.90;;;27.70;92.20;;;;;;4958506;29;20563;-60
2021/06/23 13:37:37;;;;;;;6.23;2.90;;;27.40;94.90;;;;;;4957604;28;20556;-63
2021/06/23 13:40:04;;;;;;;4.97;3.47;;;27.00;96.90;;;;;;4957209;29;20464;-62
2021/06/23 13:42:31;;;;;;;2.90;2.70;;;26.70;98.60;;;;;;4957110;29;20483;-61
2021/06/23 13:44:59;;;;;;;3.07;2.87;;;26.40;98.60;;;;;;4956900;29;20491;-60
2021/06/23 13:47:26;;;;;;;3.70;3.50;;;26.00;99.90;;;;;;4957087;29;20479;-60
2021/06/23 13:49:56;;;;;;;7.17;3.97;;;25.80;99.90;;;;;;4957075;29;20456;-61
2021/06/23 13:52:23;;;;;;;4.63;4.23;;;25.60;99.90;;;;;;4957179;29;20522;-61
2021/06/23 13:54:50;;;;;;;4.07;3.23;;;25.20;99.90;;;;;;4958103;29;20466;-60
2021/06/23 13:57:17;;;;;;;2.60;2.27;;;25.00;99.90;;;;;;4957484;29;21021;-62
2021/06/23 13:59:43;;;;;;;1.70;1.70;;;25.00;99.90;;;;;;4957461;29;20478;-61
2021/06/23 14:02:11;;;;;;;1.77;1.67;;;25.30;99.90;;;;;;4957197;29;20491;-62
2021/06/23 14:04:38;;;;;;;1.53;1.50;;;25.60;99.90;;;;;;4956735;29;20532;-60
2021/06/23 14:07:06;;;;;;;2.13;1.90;;;26.00;99.90;;;;;;4956734;29;20452;-60
2021/06/23 14:09:33;;;;;;;1.67;1.67;;;26.00;99.90;;;;;;4956595;29;20550;-61
2021/06/23 14:11:59;;;;;;;6.27;1.90;;;25.70;99.90;;;;;;4957141;29;20573;-60
2021/06/23 14:14:26;;;;;;;2.10;2.00;;;25.50;99.90;;;;;;4956617;29;20470;-61
2021/06/23 14:16:53;;;;;;;1.90;1.90;;;25.30;99.90;;;;;;4956479;29;20475;-61
2021/06/23 14:19:21;;;;;;;1.90;1.90;;;25.20;99.90;;;;;;4956361;29;20459;-61
2021/06/23 14:21:49;;;;;;;1.80;1.70;;;25.00;99.90;;;;;;4956319;29;20487;-61
2021/06/23 14:24:16;;;;;;;1.90;1.80;;;25.00;99.90;;;;;;4956481;29;20554;-61
2021/06/23 14:26:43;;;;;;;1.90;1.80;;;25.00;99.90;;;;;;4956434;29;20459;-60
2021/06/23 14:29:10;;;;;;;3.40;1.90;;;25.10;99.90;;;;;;4956398;29;20459;-62
2021/06/23 14:31:37;;;;;;;2.40;2.30;;;25.10;99.90;;;;;;4956252;29;20475;-60
2021/06/23 14:34:03;;;;;;;2.67;2.43;;;24.90;99.90;;;;;;4956248;29;20464;-61
2021/06/23 14:36:32;;;;;;;2.20;2.10;;;24.90;99.90;;;;;;4955575;28;20476;-62
2021/06/23 14:39:00;;;;;;;2.93;2.47;;;24.80;99.90;;;;;;4956367;29;20482;-61
2021/06/23 14:41:27;;;;;;;4.03;3.70;;;24.80;99.90;;;;;;4955906;29;20990;-62
2021/06/23 14:43:54;;;;;;;3.30;3.10;;;24.70;99.90;;;;;;4955834;29;21003;-61
2021/06/23 14:46:21;;;;;;;3.60;3.30;;;24.60;99.90;;;;;;4956210;29;20455;-60
2021/06/23 14:48:47;;;;;;;3.80;3.60;;;24.60;99.90;;;;;;4955957;29;20459;-61
2021/06/23 14:51:14;;;;;;;5.77;4.33;;;24.60;99.90;;;;;;4955969;29;20482;-60
2021/06/23 14:53:42;;;;;;;4.23;3.93;;;24.50;99.90;;;;;;4955846;29;20460;-60
2021/06/23 14:56:09;;;;;;;4.67;4.27;;;24.40;99.90;;;;;;4955915;29;20480;-60
2021/06/23 14:58:36;;;;;;;4.97;4.57;;;24.40;99.90;;;;;;4955964;29;20463;-61
2021/06/23 15:01:03;;;;;;;4.53;4.30;;;24.40;99.90;;;;;;4955702;29;20487;-61
2021/06/23 15:03:30;;;;;;;5.20;4.90;;;24.20;99.90;;;;;;4955951;29;20485;-60
2021/06/23 15:06:01;;;;;;;5.40;5.00;;;24.20;99.90;;;;;;4955890;29;20455;-61
2021/06/23 15:08:28;;;;;;;6.67;4.90;;;24.20;99.90;;;;;;4955519;29;20806;-60
2021/06/23 15:10:56;;;;;;;7.90;4.83;;;24.10;99.90;;;;;;4955409;29;21069;-60
2021/06/23 15:13:23;;;;;;;5.07;4.77;;;24.00;99.90;;;;;;4955827;29;20784;-61
2021/06/23 15:15:49;;;;;;;5.33;5.03;;;24.00;99.90;;;;;;4955644;29;20462;-62
2021/06/23 15:18:16;;;;;;;4.90;4.60;;;24.10;99.90;;;;;;4955911;29;20482;-61
2021/06/23 15:20:43;;;;;;;5.00;4.70;;;24.00;99.90;;;;;;4955414;29;21017;-60
2021/06/23 15:23:10;;;;;;;5.80;5.40;;;24.00;99.90;;;;;;4955368;28;20458;-62
2021/06/23 15:25:37;;;;;;;5.33;5.00;;;23.90;99.90;;;;;;4956458;29;20467;-62
2021/06/23 15:28:05;;;;;;;5.73;5.30;;;23.90;99.90;;;;;;4956338;29;20450;-61
2021/06/23 15:30:32;;;;;;;5.50;5.20;;;23.80;99.90;;;;;;4955816;29;20456;-61
2021/06/23 15:32:59;;;;;;;6.20;5.70;;;23.80;99.90;;;;;;4955700;29;20506;-61
2021/06/23 15:35:26;;;;;;;5.73;5.43;;;23.70;99.90;;;;;;4956410;29;20452;-60
2021/06/23 15:37:52;;;;;;;5.87;5.57;;;23.70;99.90;;;;;;4957001;29;20491;-61
2021/06/23 15:40:20;;;;;;;6.60;6.10;;;23.60;99.90;;;;;;4955989;29;20451;-61
2021/06/23 15:42:47;;;;;;;6.40;5.90;;;23.60;99.90;;;;;;4956168;29;20462;-61
2021/06/23 15:45:16;;;;;;;6.07;5.70;;;23.60;99.90;;;;;;4956240;29;20456;-61
2021/06/23 15:47:46;;;;;;;6.90;6.30;;;23.50;99.90;;;;;;4962896;28;20478;-61
2021/06/23 15:50:14;;;;;;;6.30;5.80;;;23.40;99.90;;;;;;4962598;29;20459;-61
2021/06/23 15:52:41;;;;;;;6.40;6.07;;;23.40;99.90;;;;;;4959311;29;20479;-61
2021/06/23 15:55:08;;;;;;;6.63;6.13;;;23.40;99.90;;;;;;4959156;29;20455;-61
2021/06/23 15:57:35;;;;;;;5.60;5.30;;;23.40;99.90;;;;;;4958775;29;20530;-61
2021/06/23 16:00:03;;;;;;;5.43;5.00;;;23.40;99.90;;;;;;4959024;29;20459;-60
2021/06/23 16:02:31;;;;;;;6.60;6.10;;;23.40;99.90;;;;;;4959094;29;20483;-61
2021/06/23 16:04:57;;;;;;;5.67;5.37;;;23.30;99.90;;;;;;4959283;29;20459;-61
2021/06/23 16:07:24;;;;;;;6.03;5.63;;;23.30;99.90;;;;;;4959326;29;20455;-61
2021/06/23 16:09:51;;;;;;;9.03;6.57;;;23.40;99.90;;;;;;4959363;29;20462;-61
2021/06/23 16:12:17;;;;;;;6.83;6.33;;;23.40;99.90;;;;;;4959129;29;20836;-62
2021/06/23 16:14:44;;;;;;;7.00;6.60;;;23.30;99.90;;;;;;4959139;29;20451;-61
2021/06/23 16:17:11;;;;;;;6.80;6.30;;;23.40;99.90;;;;;;4959071;29;20479;-62
2021/06/23 16:19:41;;;;;;;6.60;6.20;;;23.30;99.90;;;;;;4958764;29;20970;-62
2021/06/23 16:22:09;;;;;;;6.67;6.20;;;23.40;99.90;;;;;;4958975;29;20573;-61
2021/06/23 16:24:37;;;;;;;6.83;6.20;;;23.40;99.90;;;;;;4959264;29;20459;-61
2021/06/23 16:27:05;;;;;;;7.63;7.23;;;23.30;99.90;;;;;;4958797;28;20522;-62
2021/06/23 16:29:31;;;;;;;7.00;6.53;;;23.20;99.90;;;;;;4958589;28;20459;-62
2021/06/23 16:31:58;;;;;;;6.70;6.30;;;23.30;99.90;;;;;;4958257;29;20985;-61
2021/06/23 16:34:25;;;;;;;7.43;6.83;;;23.30;99.90;;;;;;4958825;29;20462;-61
2021/06/23 16:36:53;;;;;;;7.30;6.80;;;23.30;99.90;;;;;;4958819;29;20843;-60
2021/06/23 16:39:20;;;;;;;7.00;6.60;;;23.20;99.90;;;;;;4959642;29;20459;-61
2021/06/23 16:41:47;;;;;;;7.60;6.93;;;23.30;99.90;;;;;;4958241;29;20471;-60
2021/06/23 16:44:14;;;;;;;7.13;6.63;;;23.30;99.90;;;;;;4958387;29;20455;-60
2021/06/23 16:46:41;;;;;;;7.93;7.33;;;23.30;99.90;;;;;;4959191;29;20451;-61
2021/06/23 16:49:08;;;;;;;7.60;7.00;;;23.20;99.90;;;;;;4958319;29;20455;-61
2021/06/23 16:51:36;;;;;;;7.90;7.30;;;23.10;99.90;;;;;;4958316;29;20479;-60
2021/06/23 16:54:05;;;;;;;8.33;7.83;;;23.20;99.90;;;;;;4958436;29;20455;-61
2021/06/23 16:56:33;;;;;;;8.47;7.93;;;23.20;99.90;;;;;;4958947;29;20444;-59
2021/06/23 16:58:59;;;;;;;8.83;8.20;;;23.20;99.90;;;;;;4957921;28;20455;-62
2021/06/23 17:01:26;;;;;;;9.57;8.77;;;23.20;99.90;;;;;;4959806;29;20490;-60